Logo AVAMET
Benvolgut visitant, si us plau, ingressa Recuperar contrasenya

Inforatge Borriana Ajuntament

Dades diàries. Acumulats / Últims 30 dies disponibles

Data Temperatura (°C) Humitat rel. (%) Pressió rel. (hPa) Vent (km/h) Precipitació
Mínima Mitjana Màxima Amplitud
tèrmica
Mínima Mitjana Màxima Mínima Mitjana Màxima Predom. Mitjana Ràfega
màxima
Total
(mm)
Índex-n
Mínima Mitjana Màxima Mínima Mitjana Màxima n
0 a 1
P0 max
mm 5'
Dades mensuals acumulades fins l'últim dia disponible
12/2019 9,2 10,4 11,6 12,4 12,6 14,7 17,7 8,5 59 78 93 1.008 1.016 1.022   7,6 59,5 59,0
Dades anuals acumulades fins l'últim dia disponible
2019 3,1 14,7 25,2 18,5 11,7 22,6 34,4 31,3 15 66 95 993 1.019 1.039   6,7 72,4 274,2
Últims 30 dies disponibles
04-12-2019 9,9     11,4     13,8 3,9 74 87 93 1.008 1.010 1.016 NNE 12,2 59,5 54,0 0,42 1,70
03-12-2019 9,2     11,2     12,6 3,4 60 73 88 1.016 1.019 1.022 NW 6,1 35,4 4,8 0,32 0,40
02-12-2019 10,7     12,9     14,6 3,9 64 73 80 1.016 1.019 1.022 NE 7,2 35,4 0,2
01-12-2019 11,6     13,9     17,7 6,1 59 78 90 1.013 1.015 1.017 E 4,7 30,6 0,0
30-11-2019 12,6     15,0     17,7 5,1 64 77 88 1.016 1.021 1.024 SO 3,8 19,3 0,0
29-11-2019 15,5     17,9     22,4 6,9 52 63 75 1.017 1.020 1.024 E 4,5 22,5 0,0
28-11-2019 12,4     17,2     22,1 9,7 40 55 70 1.015 1.017 1.019 SW 6,3 35,4 0,0
27-11-2019 15,7     19,1     24,0 8,3 34 54 71 1.009 1.012 1.015 SW 7,6 37,0 0,0
26-11-2019 12,1     15,8     19,7 7,6 54 65 73 1.010 1.014 1.017 WNW 4,5 16,1 0,0
25-11-2019 10,9     16,5     23,3 12,4 37 57 77 1.013 1.015 1.018 WNW 5,3 30,6 0,0
24-11-2019 12,7     15,4     18,9 6,2 38 45 55 1.009 1.013 1.015 WNW 8,4 35,4 0,0
23-11-2019 13,3     15,3     17,7 4,4 36 52 79 993 1.000 1.008 WNW 10,8 45,1 0,0
22-11-2019 9,4     13,3     16,6 7,2 63 75 89 995 1.004 1.011 WNW 4,0 25,7 1,0
21-11-2019 7,6     13,1     17,7 10,1 44 66 77 1.010 1.011 1.013 SW 4,8 27,4 0,0
20-11-2019 8,3     11,5     15,5 7,2 58 64 74 1.012 1.015 1.019 WNW 5,3 19,3 0,0
19-11-2019 7,3     10,7     15,4 8,1 39 56 68 1.018 1.019 1.021 WNW 5,6 20,9 0,0
18-11-2019 9,1     12,7     17,1 8,0 36 55 75 1.010 1.014 1.019 NW 4,8 25,7 0,0
17-11-2019 8,4     13,3     18,3 9,9 37 50 62 1.011 1.014 1.017 WNW 5,1 22,5 0,0
16-11-2019 6,9     10,7     16,2 9,3 34 56 69 1.009 1.014 1.017 NW 4,8 22,5 0,0
15-11-2019 9,3     12,3     16,5 7,2 37 50 68 1.002 1.005 1.009 WNW 7,1 38,6 0,0
14-11-2019 10,6     13,7     16,6 6,0 37 58 81 1.001 1.004 1.012 W 7,4 54,7 0,0
13-11-2019 10,8     14,7     19,2 8,4 50 67 87 1.007 1.010 1.014 WNW 3,5 30,6 1,6
12-11-2019 11,9     15,4     20,1 8,2 34 44 58 1.011 1.014 1.016 WNW 5,6 32,2 0,4
11-11-2019 9,7     13,9     18,6 8,9 36 50 64 1.013 1.015 1.017 WNW 5,6 27,4 0,0
10-11-2019 10,8     14,1     18,1 7,3 32 45 55 1.013 1.014 1.017 WNW 7,1 51,5 0,0
09-11-2019 13,3     15,9     19,1 5,8 35 45 57 1.015 1.018 1.021 WNW 8,5 48,3 0,0
08-11-2019 11,4     14,7     18,7 7,3 30 41 55 1.011 1.014 1.018 WNW 10,3 54,7 0,0
07-11-2019 11,2     16,3     23,2 12,0 33 53 66 1.009 1.011 1.015 WNW 6,0 32,2 0,0
06-11-2019 13,4     17,1     21,8 8,4 33 47 56 1.014 1.015 1.016 WNW 6,9 32,2 0,0
05-11-2019 14,8     18,4     21,3 6,5 33 46 63 1.007 1.010 1.014 WNW 9,7 38,6 0,0
Últims 13 mesos disponibles
11/2019 6,9 12,1 19,3 15,6 15,4 20,0 28,3 21,4 41 56 77 1.000 1.013 1.021 WNW 6,5 54,7 3,0
10/2019 10,5 16,4 20,2 20,0 15,6 24,1 28,4 17,9 48 71 84 1.009 1.019 1.025 WNW 5,5 45,1 18,8
09/2019 15,2 20,1 23,6 23,4 21,2 27,1 32,1 16,9 52 73 82 1.012 1.021 1.028 S 6,9 59,6 83,2
08/2019 17,6 22,0 25,2 25,9 26,8 29,6 33,3 15,7 56 73 80 1.013 1.019 1.023 SSO 6,5 59,6 39,8
07/2019 21,4 22,6 24,5 26,4 27,7 30,0 33,6 12,2 51 68 80 1.008 1.017 1.024 S 6,7 45,0 12,4
06/2019 11,9 18,3 22,7 22,5 21,5 26,3 34,4 22,5 44 66 79 1.011 1.018 1.025 SSE 7,4 50,0 0,0
05/2019 10,1 14,3 17,5 17,9 17,6 21,8 27,9 17,8 53 69 85 1.007 1.017 1.026 S 6,9 53,7 12,6
04/2019 7,6 11,8 15,2 15,1 11,7 18,9 25,8 18,2 49 67 88 1.002 1.016 1.028 SSO 8,5 64,8 31,8
03/2019 7,7 9,9 12,2 14,2 12,8 18,6 24,8 17,1 45 61 84 1.014 1.026 1.033 SO 6,6 50,0 11,8
02/2019 3,1 7,5 11,8 11,8 13,8 16,8 21,7 18,6 28 66 78 996 1.028 1.037 SO 5,9 72,4 0,0
01/2019 3,9 6,9 10,9 11,0 12,3 16,1 22,3 18,4 37 58 76 1.003 1.022 1.033 OSO 6,3 70,9 1,8
12/2018 6,5 9,2 13,6 12,8 12,7 17,5 22,8 16,3 53 72 86 1.010 1.028 1.033 OSO 4,4 40,7 14,6
11/2018 8,0 11,5 15,7 14,5 14,7 18,8 22,7 14,7 53 74 92 1.004 1.018 1.027 SO 5,3 53,7 124,8
Tots els anys disponibles
Temperatura (°C)
Humitat relativa (%)
Velocitat del vent i ràfega màxima (km/h)
Direcció del vent (°)
Pressió (hPa)
Precipitació (mm)
Nota sobre les dades: s'avisa a l'usuari de la provisionalitat i no oficialitat d'aquestes dades
Logo AVAMET blanc
Web allotjada a Sollutia
Llicència de Creative CommonsLa web d'AVAMET i els seus continguts estan subjectes a una llicència de
Reconeixement - No Comercial - Compartir igual
Últimes estacions: Aielo de Malferit - Centre (Soci), Faura (Inforatge), Benifairó de les Valls (Inforatge), Xàbia - Les Valls (Soci), Xàbia - Alt de la Granadella (Soci), Villena - Sierra de Salinas (Soci), Sueca - Centre (Inforatge) - - -